sensor_id;sensor_type;location;lat;lon;timestamp;pressure;altitude;pressure_sealevel;temperature;humidity
12178;BME280;6152;48.728;9.256;2024-01-15T00:00:00;96030.88;;;-2.27;100.00
12178;BME280;6152;48.728;9.256;2024-01-15T00:02:26;96025.72;;;-2.24;100.00
12178;BME280;6152;48.728;9.256;2024-01-15T00:04:53;96030.81;;;-2.24;100.00
12178;BME280;6152;48.728;9.256;2024-01-15T00:07:19;96023.81;;;-2.18;100.00
12178;BME280;6152;48.728;9.256;2024-01-15T00:09:45;96015.34;;;-2.18;100.00
12178;BME280;6152;48.728;9.256;2024-01-15T00:12:11;96010.84;;;-2.10;100.00
12178;BME280;6152;48.728;9.256;2024-01-15T00:14:37;95999.88;;;-2.12;100.00
12178;BME280;6152;48.728;9.256;2024-01-15T00:17:03;96007.31;;;-2.06;100.00
12178;BME280;6152;48.728;9.256;2024-01-15T00:19:29;96000.72;;;-2.12;100.00
12178;BME280;6152;48.728;9.256;2024-01-15T00:21:58;95999.97;;;-2.15;100.00
12178;BME280;6152;48.728;9.256;2024-01-15T00:24:25;96002.59;;;-2.18;100.00
12178;BME280;6152;48.728;9.256;2024-01-15T00:26:51;96001.84;;;-2.22;100.00
12178;BME280;6152;48.728;9.256;2024-01-15T00:29:17;95995.28;;;-2.30;100.00
12178;BME280;6152;48.728;9.256;2024-01-15T00:31:43;96000.47;;;-2.33;100.00
12178;BME280;6152;48.728;9.256;2024-01-15T00:34:09;96002.38;;;-2.40;100.00
12178;BME280;6152;48.728;9.256;2024-01-15T00:36:35;95999.91;;;-2.43;100.00
12178;BME280;6152;48.728;9.256;2024-01-15T00:39:01;96000.84;;;-2.45;100.00
12178;BME280;6152;48.728;9.256;2024-01-15T00:41:27;95996.91;;;-2.57;100.00
12178;BME280;6152;48.728;9.256;2024-01-15T00:43:53;95990.19;;;-2.60;100.00
12178;BME280;6152;48.728;9.256;2024-01-15T00:46:20;95992.09;;;-2.68;100.00
12178;BME280;6152;48.728;9.256;2024-01-15T00:48:46;95994.75;;;-2.71;100.00
12178;BME280;6152;48.728;9.256;2024-01-15T00:51:13;96003.31;;;-2.75;100.00
12178;BME280;6152;48.728;9.256;2024-01-15T00:53:39;96003.41;;;-2.78;100.00
12178;BME280;6152;48.728;9.256;2024-01-15T00:56:05;96006.00;;;-2.79;100.00
12178;BME280;6152;48.728;9.256;2024-01-15T00:58:32;96012.16;;;-2.88;100.00
12178;BME280;6152;48.728;9.256;2024-01-15T01:00:58;96015.72;;;-2.93;100.00
12178;BME280;6152;48.728;9.256;2024-01-15T01:03:24;96008.88;;;-2.93;100.00
12178;BME280;6152;48.728;9.256;2024-01-15T01:05:50;96011.56;;;-2.97;100.00
12178;BME280;6152;48.728;9.256;2024-01-15T01:08:16;96008.28;;;-3.01;100.00
12178;BME280;6152;48.728;9.256;2024-01-15T01:10:42;96003.97;;;-2.99;100.00
12178;BME280;6152;48.728;9.256;2024-01-15T01:13:09;95998.78;;;-2.94;100.00
12178;BME280;6152;48.728;9.256;2024-01-15T01:15:35;95996.91;;;-2.88;100.00
12178;BME280;6152;48.728;9.256;2024-01-15T01:18:01;95991.06;;;-2.91;100.00
12178;BME280;6152;48.728;9.256;2024-01-15T01:20:27;95992.69;;;-2.89;100.00
12178;BME280;6152;48.728;9.256;2024-01-15T01:22:53;95997.69;;;-2.86;100.00
12178;BME280;6152;48.728;9.256;2024-01-15T01:25:19;95999.41;;;-2.86;100.00
12178;BME280;6152;48.728;9.256;2024-01-15T01:27:46;95985.66;;;-2.79;100.00
12178;BME280;6152;48.728;9.256;2024-01-15T01:30:12;95995.00;;;-2.80;100.00
12178;BME280;6152;48.728;9.256;2024-01-15T01:32:38;95994.06;;;-2.77;100.00
12178;BME280;6152;48.728;9.256;2024-01-15T01:35:04;95995.66;;;-2.73;100.00
12178;BME280;6152;48.728;9.256;2024-01-15T01:37:30;95992.91;;;-2.66;100.00
12178;BME280;6152;48.728;9.256;2024-01-15T01:39:57;95985.09;;;-2.60;100.00
12178;BME280;6152;48.728;9.256;2024-01-15T01:42:23;95991.69;;;-2.52;100.00
12178;BME280;6152;48.728;9.256;2024-01-15T01:44:49;95995.03;;;-2.50;100.00
12178;BME280;6152;48.728;9.256;2024-01-15T01:47:15;95994.09;;;-2.48;100.00
12178;BME280;6152;48.728;9.256;2024-01-15T01:49:42;95993.97;;;-2.43;100.00
12178;BME280;6152;48.728;9.256;2024-01-15T01:52:09;96004.03;;;-2.39;100.00
12178;BME280;6152;48.728;9.256;2024-01-15T01:54:37;95998.94;;;-2.39;100.00
12178;BME280;6152;48.728;9.256;2024-01-15T01:57:06;95998.81;;;-2.34;100.00
12178;BME280;6152;48.728;9.256;2024-01-15T01:59:34;95997.91;;;-2.32;100.00
12178;BME280;6152;48.728;9.256;2024-01-15T02:02:01;95998.75;;;-2.31;100.00
12178;BME280;6152;48.728;9.256;2024-01-15T02:04:29;95995.19;;;-2.27;100.00
12178;BME280;6152;48.728;9.256;2024-01-15T02:06:57;95991.59;;;-2.20;100.00
12178;BME280;6152;48.728;9.256;2024-01-15T02:09:23;96001.88;;;-2.23;100.00
12178;BME280;6152;48.728;9.256;2024-01-15T02:11:49;96000.00;;;-2.17;100.00
12178;BME280;6152;48.728;9.256;2024-01-15T02:14:15;96000.94;;;-2.19;100.00
12178;BME280;6152;48.728;9.256;2024-01-15T02:16:41;95996.69;;;-2.20;100.00
12178;BME280;6152;48.728;9.256;2024-01-15T02:19:14;95987.41;;;-2.21;100.00
12178;BME280;6152;48.728;9.256;2024-01-15T02:21:40;95986.41;;;-2.17;100.00
12178;BME280;6152;48.728;9.256;2024-01-15T02:24:06;95978.75;;;-2.16;100.00
12178;BME280;6152;48.728;9.256;2024-01-15T02:26:32;95982.00;;;-2.11;100.00
12178;BME280;6152;48.728;9.256;2024-01-15T02:29:02;95992.88;;;-2.06;100.00
12178;BME280;6152;48.728;9.256;2024-01-15T02:31:28;95992.03;;;-2.06;100.00
12178;BME280;6152;48.728;9.256;2024-01-15T02:33:54;95988.66;;;-2.07;100.00
12178;BME280;6152;48.728;9.256;2024-01-15T02:36:20;95988.66;;;-2.07;100.00
12178;BME280;6152;48.728;9.256;2024-01-15T02:38:46;95984.47;;;-2.09;100.00
12178;BME280;6152;48.728;9.256;2024-01-15T02:41:13;95987.03;;;-2.09;100.00
12178;BME280;6152;48.728;9.256;2024-01-15T02:43:40;95994.69;;;-2.09;100.00
12178;BME280;6152;48.728;9.256;2024-01-15T02:46:07;95984.47;;;-2.09;100.00
12178;BME280;6152;48.728;9.256;2024-01-15T02:48:33;95980.31;;;-2.12;100.00
12178;BME280;6152;48.728;9.256;2024-01-15T02:51:01;95980.41;;;-2.15;100.00
12178;BME280;6152;48.728;9.256;2024-01-15T02:53:28;95990.03;;;-2.24;100.00
12178;BME280;6152;48.728;9.256;2024-01-15T02:55:54;95981.66;;;-2.28;100.00
12178;BME280;6152;48.728;9.256;2024-01-15T02:58:20;95978.28;;;-2.28;100.00
12178;BME280;6152;48.728;9.256;2024-01-15T03:00:46;95973.31;;;-2.34;100.00
12178;BME280;6152;48.728;9.256;2024-01-15T03:03:13;95973.50;;;-2.40;100.00
12178;BME280;6152;48.728;9.256;2024-01-15T03:05:39;95976.25;;;-2.46;100.00
12178;BME280;6152;48.728;9.256;2024-01-15T03:08:05;95968.78;;;-2.52;100.00
12178;BME280;6152;48.728;9.256;2024-01-15T03:10:31;95972.38;;;-2.60;100.00
12178;BME280;6152;48.728;9.256;2024-01-15T03:12:57;95957.19;;;-2.63;100.00
12178;BME280;6152;48.728;9.256;2024-01-15T03:15:24;95959.81;;;-2.66;100.00
12178;BME280;6152;48.728;9.256;2024-01-15T03:17:50;95958.16;;;-2.68;100.00
12178;BME280;6152;48.728;9.256;2024-01-15T03:20:16;95957.50;;;-2.75;100.00
12178;BME280;6152;48.728;9.256;2024-01-15T03:22:42;95963.47;;;-2.76;100.00
12178;BME280;6152;48.728;9.256;2024-01-15T03:25:08;95954.22;;;-2.78;100.00
12178;BME280;6152;48.728;9.256;2024-01-15T03:27:34;95955.25;;;-2.85;100.00
12178;BME280;6152;48.728;9.256;2024-01-15T03:30:01;95959.59;;;-2.89;100.00
12178;BME280;6152;48.728;9.256;2024-01-15T03:32:28;95950.38;;;-2.93;100.00
12178;BME280;6152;48.728;9.256;2024-01-15T03:34:54;95947.91;;;-2.96;100.00
12178;BME280;6152;48.728;9.256;2024-01-15T03:37:20;95938.38;;;-2.88;100.00
12178;BME280;6152;48.728;9.256;2024-01-15T03:39:46;95941.75;;;-2.87;100.00
12178;BME280;6152;48.728;9.256;2024-01-15T03:42:12;95946.00;;;-2.88;100.00
12178;BME280;6152;48.728;9.256;2024-01-15T03:44:40;95938.47;;;-2.91;100.00
12178;BME280;6152;48.728;9.256;2024-01-15T03:47:06;95938.19;;;-2.82;100.00
12178;BME280;6152;48.728;9.256;2024-01-15T03:49:32;95933.91;;;-2.80;100.00
12178;BME280;6152;48.728;9.256;2024-01-15T03:51:58;95935.31;;;-2.70;100.00
12178;BME280;6152;48.728;9.256;2024-01-15T03:54:24;95940.53;;;-2.74;100.00
12178;BME280;6152;48.728;9.256;2024-01-15T03:56:50;95936.94;;;-2.67;100.00
12178;BME280;6152;48.728;9.256;2024-01-15T03:59:16;95933.53;;;-2.66;100.00
12178;BME280;6152;48.728;9.256;2024-01-15T04:01:49;95934.28;;;-2.63;100.00
12178;BME280;6152;48.728;9.256;2024-01-15T04:04:16;95931.53;;;-2.57;100.00
12178;BME280;6152;48.728;9.256;2024-01-15T04:06:42;95926.94;;;-2.44;100.00
12178;BME280;6152;48.728;9.256;2024-01-15T04:09:08;95926.03;;;-2.41;100.00
12178;BME280;6152;48.728;9.256;2024-01-15T04:11:34;95923.22;;;-2.34;100.00
12178;BME280;6152;48.728;9.256;2024-01-15T04:14:00;95927.31;;;-2.28;100.00
12178;BME280;6152;48.728;9.256;2024-01-15T04:16:26;95916.22;;;-2.27;100.00
12178;BME280;6152;48.728;9.256;2024-01-15T04:18:52;95917.13;;;-2.28;100.00
12178;BME280;6152;48.728;9.256;2024-01-15T04:21:18;95917.13;;;-2.28;100.00
12178;BME280;6152;48.728;9.256;2024-01-15T04:23:44;95919.63;;;-2.27;100.00
12178;BME280;6152;48.728;9.256;2024-01-15T04:26:10;95920.34;;;-2.23;100.00
12178;BME280;6152;48.728;9.256;2024-01-15T04:28:36;95916.75;;;-2.16;100.00
12178;BME280;6152;48.728;9.256;2024-01-15T04:31:03;95913.25;;;-2.12;100.00
12178;BME280;6152;48.728;9.256;2024-01-15T04:33:29;95907.41;;;-2.16;100.00
12178;BME280;6152;48.728;9.256;2024-01-15T04:35:55;95908.91;;;-2.10;100.00
12178;BME280;6152;48.728;9.256;2024-01-15T04:38:21;95911.22;;;-2.03;100.00
12178;BME280;6152;48.728;9.256;2024-01-15T04:40:47;95919.63;;;-1.99;100.00
12178;BME280;6152;48.728;9.256;2024-01-15T04:43:13;95916.19;;;-1.98;100.00
12178;BME280;6152;48.728;9.256;2024-01-15T04:45:39;95912.69;;;-1.94;100.00
12178;BME280;6152;48.728;9.256;2024-01-15T04:48:05;95919.34;;;-1.90;100.00
12178;BME280;6152;48.728;9.256;2024-01-15T04:50:31;95917.69;;;-1.91;100.00
12178;BME280;6152;48.728;9.256;2024-01-15T04:52:58;95921.81;;;-1.87;100.00
12178;BME280;6152;48.728;9.256;2024-01-15T04:55:24;95907.06;;;-1.79;100.00
12178;BME280;6152;48.728;9.256;2024-01-15T04:57:50;95913.13;;;-1.81;100.00
12178;BME280;6152;48.728;9.256;2024-01-15T05:00:16;95919.69;;;-1.74;100.00
12178;BME280;6152;48.728;9.256;2024-01-15T05:02:42;95923.84;;;-1.72;100.00
12178;BME280;6152;48.728;9.256;2024-01-15T05:05:08;95917.88;;;-1.71;100.00
12178;BME280;6152;48.728;9.256;2024-01-15T05:07:34;95920.31;;;-1.68;100.00
12178;BME280;6152;48.728;9.256;2024-01-15T05:10:00;95921.03;;;-1.63;100.00
12178;BME280;6152;48.728;9.256;2024-01-15T05:12:26;95918.38;;;-1.60;100.00
12178;BME280;6152;48.728;9.256;2024-01-15T05:14:53;95918.25;;;-1.57;100.00
12178;BME280;6152;48.728;9.256;2024-01-15T05:17:19;95912.28;;;-1.56;100.00
12178;BME280;6152;48.728;9.256;2024-01-15T05:19:45;95902.91;;;-1.55;100.00
12178;BME280;6152;48.728;9.256;2024-01-15T05:22:11;95895.91;;;-1.48;100.00
12178;BME280;6152;48.728;9.256;2024-01-15T05:24:37;95890.81;;;-1.48;100.00
12178;BME280;6152;48.728;9.256;2024-01-15T05:27:03;95894.13;;;-1.46;100.00
12178;BME280;6152;48.728;9.256;2024-01-15T05:29:29;95880.59;;;-1.48;100.00
12178;BME280;6152;48.728;9.256;2024-01-15T05:31:56;95890.06;;;-1.52;100.00
12178;BME280;6152;48.728;9.256;2024-01-15T05:34:22;95880.63;;;-1.50;100.00
12178;BME280;6152;48.728;9.256;2024-01-15T05:36:48;95883.91;;;-1.46;100.00
12178;BME280;6152;48.728;9.256;2024-01-15T05:39:14;95889.84;;;-1.46;100.00
12178;BME280;6152;48.728;9.256;2024-01-15T05:41:40;95890.69;;;-1.45;100.00
12178;BME280;6152;48.728;9.256;2024-01-15T05:44:06;95894.97;;;-1.46;100.00
12178;BME280;6152;48.728;9.256;2024-01-15T05:46:32;95889.03;;;-1.46;100.00
12178;BME280;6152;48.728;9.256;2024-01-15T05:48:58;95891.47;;;-1.43;100.00
12178;BME280;6152;48.728;9.256;2024-01-15T05:51:25;95886.38;;;-1.43;100.00
12178;BME280;6152;48.728;9.256;2024-01-15T05:53:51;95889.91;;;-1.47;100.00
12178;BME280;6152;48.728;9.256;2024-01-15T05:56:17;95885.69;;;-1.48;100.00
12178;BME280;6152;48.728;9.256;2024-01-15T05:58:43;95878.78;;;-1.45;100.00
12178;BME280;6152;48.728;9.256;2024-01-15T06:01:10;95877.13;;;-1.47;100.00
12178;BME280;6152;48.728;9.256;2024-01-15T06:03:36;95886.44;;;-1.45;100.00
12178;BME280;6152;48.728;9.256;2024-01-15T06:06:02;95880.59;;;-1.48;100.00
12178;BME280;6152;48.728;9.256;2024-01-15T06:08:28;95896.72;;;-1.48;100.00
12178;BME280;6152;48.728;9.256;2024-01-15T06:10:56;95882.25;;;-1.47;100.00
12178;BME280;6152;48.728;9.256;2024-01-15T06:13:22;95878.06;;;-1.48;100.00
12178;BME280;6152;48.728;9.256;2024-01-15T06:15:48;95883.16;;;-1.48;100.00
12178;BME280;6152;48.728;9.256;2024-01-15T06:18:15;95882.25;;;-1.47;100.00
12178;BME280;6152;48.728;9.256;2024-01-15T06:20:41;95877.13;;;-1.47;100.00
12178;BME280;6152;48.728;9.256;2024-01-15T06:23:07;95889.03;;;-1.46;100.00
12178;BME280;6152;48.728;9.256;2024-01-15T06:25:33;95891.53;;;-1.45;100.00
12178;BME280;6152;48.728;9.256;2024-01-15T06:27:59;95882.13;;;-1.44;100.00
12178;BME280;6152;48.728;9.256;2024-01-15T06:30:25;95882.84;;;-1.39;100.00
12178;BME280;6152;48.728;9.256;2024-01-15T06:32:51;95869.34;;;-1.43;100.00
12178;BME280;6152;48.728;9.256;2024-01-15T06:35:17;95876.06;;;-1.40;100.00
12178;BME280;6152;48.728;9.256;2024-01-15T06:37:43;95866.84;;;-1.44;100.00
12178;BME280;6152;48.728;9.256;2024-01-15T06:40:10;95867.75;;;-1.45;100.00
12178;BME280;6152;48.728;9.256;2024-01-15T06:42:36;95857.53;;;-1.45;100.00
12178;BME280;6152;48.728;9.256;2024-01-15T06:45:02;95850.72;;;-1.45;100.00
12178;BME280;6152;48.728;9.256;2024-01-15T06:47:28;95854.88;;;-1.42;100.00
12178;BME280;6152;48.728;9.256;2024-01-15T06:49:54;95859.97;;;-1.42;100.00
12178;BME280;6152;48.728;9.256;2024-01-15T06:52:20;95855.84;;;-1.46;100.00
12178;BME280;6152;48.728;9.256;2024-01-15T06:54:47;95849.88;;;-1.45;100.00
12178;BME280;6152;48.728;9.256;2024-01-15T06:57:13;95856.56;;;-1.41;100.00
12178;BME280;6152;48.728;9.256;2024-01-15T06:59:39;95847.25;;;-1.44;100.00
12178;BME280;6152;48.728;9.256;2024-01-15T07:02:06;95854.69;;;-1.38;100.00
12178;BME280;6152;48.728;9.256;2024-01-15T07:04:32;95842.78;;;-1.37;100.00
12178;BME280;6152;48.728;9.256;2024-01-15T07:06:58;95831.75;;;-1.38;100.00
12178;BME280;6152;48.728;9.256;2024-01-15T07:09:25;95832.56;;;-1.37;100.00
12178;BME280;6152;48.728;9.256;2024-01-15T07:11:51;95835.81;;;-1.32;100.00
12178;BME280;6152;48.728;9.256;2024-01-15T07:14:20;95840.91;;;-1.32;100.00
12178;BME280;6152;48.728;9.256;2024-01-15T07:16:46;95847.69;;;-1.31;100.00
12178;BME280;6152;48.728;9.256;2024-01-15T07:19:12;95839.13;;;-1.30;100.00
12178;BME280;6152;48.728;9.256;2024-01-15T07:21:38;95839.84;;;-1.27;100.00
12178;BME280;6152;48.728;9.256;2024-01-15T07:24:06;95843.03;;;-1.20;100.00
12178;BME280;6152;48.728;9.256;2024-01-15T07:26:32;95845.47;;;-1.17;100.00
12178;BME280;6152;48.728;9.256;2024-01-15T07:28:58;95854.75;;;-1.15;100.00
12178;BME280;6152;48.728;9.256;2024-01-15T07:31:24;95852.97;;;-1.13;100.00
12178;BME280;6152;48.728;9.256;2024-01-15T07:33:50;95847.81;;;-1.11;100.00
12178;BME280;6152;48.728;9.256;2024-01-15T07:36:16;95850.25;;;-1.08;100.00
12178;BME280;6152;48.728;9.256;2024-01-15T07:38:42;95850.16;;;-1.05;100.00
12178;BME280;6152;48.728;9.256;2024-01-15T07:41:08;95851.94;;;-1.07;100.00
12178;BME280;6152;48.728;9.256;2024-01-15T07:43:36;95855.97;;;-1.02;100.00
12178;BME280;6152;48.728;9.256;2024-01-15T07:46:02;95843.34;;;-1.05;100.00
12178;BME280;6152;48.728;9.256;2024-01-15T07:48:28;95843.38;;;-1.06;100.00
12178;BME280;6152;48.728;9.256;2024-01-15T07:50:54;95838.16;;;-1.03;100.00
12178;BME280;6152;48.728;9.256;2024-01-15T07:53:20;95845.88;;;-1.05;100.00
12178;BME280;6152;48.728;9.256;2024-01-15T07:55:46;95843.22;;;-1.02;100.00
12178;BME280;6152;48.728;9.256;2024-01-15T07:58:12;95853.28;;;-0.97;100.00
12178;BME280;6152;48.728;9.256;2024-01-15T08:00:39;95854.91;;;-0.96;100.00
12178;BME280;6152;48.728;9.256;2024-01-15T08:03:05;95854.81;;;-0.93;100.00
12178;BME280;6152;48.728;9.256;2024-01-15T08:05:32;95850.38;;;-0.88;100.00
12178;BME280;6152;48.728;9.256;2024-01-15T08:07:58;95853.03;;;-0.91;100.00
12178;BME280;6152;48.728;9.256;2024-01-15T08:10:24;95858.16;;;-0.91;100.00
12178;BME280;6152;48.728;9.256;2024-01-15T08:12:50;95864.81;;;-0.87;100.00
12178;BME280;6152;48.728;9.256;2024-01-15T08:15:17;95859.75;;;-0.88;100.00
12178;BME280;6152;48.728;9.256;2024-01-15T08:17:43;95861.59;;;-0.92;100.00
12178;BME280;6152;48.728;9.256;2024-01-15T08:20:09;95861.59;;;-0.92;100.00
12178;BME280;6152;48.728;9.256;2024-01-15T08:22:36;95864.81;;;-0.87;100.00
12178;BME280;6152;48.728;9.256;2024-01-15T08:25:02;95861.19;;;-0.81;100.00
12178;BME280;6152;48.728;9.256;2024-01-15T08:27:30;95861.03;;;-0.77;100.00
12178;BME280;6152;48.728;9.256;2024-01-15T08:29:56;95862.63;;;-0.74;100.00
12178;BME280;6152;48.728;9.256;2024-01-15T08:32:22;95858.28;;;-0.72;100.00
12178;BME280;6152;48.728;9.256;2024-01-15T08:34:48;95863.38;;;-0.71;100.00
12178;BME280;6152;48.728;9.256;2024-01-15T08:37:18;95854.81;;;-0.70;100.00
12178;BME280;6152;48.728;9.256;2024-01-15T08:39:45;95859.81;;;-0.67;100.00
12178;BME280;6152;48.728;9.256;2024-01-15T08:42:11;95855.47;;;-0.65;100.00
12178;BME280;6152;48.728;9.256;2024-01-15T08:44:37;95856.91;;;-0.58;100.00
12178;BME280;6152;48.728;9.256;2024-01-15T08:47:05;95856.78;;;-0.55;100.00
12178;BME280;6152;48.728;9.256;2024-01-15T08:49:31;95866.81;;;-0.48;100.00
12178;BME280;6152;48.728;9.256;2024-01-15T08:51:57;95873.22;;;-0.38;100.00
12178;BME280;6152;48.728;9.256;2024-01-15T08:54:24;95868.84;;;-0.35;100.00
12178;BME280;6152;48.728;9.256;2024-01-15T08:56:50;95877.63;;;-0.20;100.00
12178;BME280;6152;48.728;9.256;2024-01-15T08:59:16;95875.59;;;-0.12;100.00
12178;BME280;6152;48.728;9.256;2024-01-15T09:01:42;95878.84;;;-0.07;100.00
12178;BME280;6152;48.728;9.256;2024-01-15T09:04:08;95880.34;;;-0.03;100.00
12178;BME280;6152;48.728;9.256;2024-01-15T09:06:34;95876.66;;;0.04;100.00
12178;BME280;6152;48.728;9.256;2024-01-15T09:09:00;95876.03;;;-0.01;100.00
12178;BME280;6152;48.728;9.256;2024-01-15T09:11:27;95879.47;;;-0.02;100.00
12178;BME280;6152;48.728;9.256;2024-01-15T09:13:53;95871.78;;;-0.02;100.00
12178;BME280;6152;48.728;9.256;2024-01-15T09:16:19;95865.94;;;-0.04;100.00
12178;BME280;6152;48.728;9.256;2024-01-15T09:18:45;95876.03;;;-0.01;100.00
12178;BME280;6152;48.728;9.256;2024-01-15T09:21:12;95864.78;;;0.03;100.00
12178;BME280;6152;48.728;9.256;2024-01-15T09:23:38;95863.00;;;0.05;100.00
12178;BME280;6152;48.728;9.256;2024-01-15T09:26:06;95853.66;;;0.04;100.00
12178;BME280;6152;48.728;9.256;2024-01-15T09:28:33;95856.63;;;0.15;100.00
12178;BME280;6152;48.728;9.256;2024-01-15T09:30:59;95856.63;;;0.15;100.00
12178;BME280;6152;48.728;9.256;2024-01-15T09:33:25;95852.28;;;0.17;100.00
12178;BME280;6152;48.728;9.256;2024-01-15T09:35:51;95854.59;;;0.23;100.00
12178;BME280;6152;48.728;9.256;2024-01-15T09:38:18;95849.34;;;0.26;100.00
12178;BME280;6152;48.728;9.256;2024-01-15T09:40:46;95838.94;;;0.31;100.00
12178;BME280;6152;48.728;9.256;2024-01-15T09:43:13;95835.28;;;0.36;100.00
12178;BME280;6152;48.728;9.256;2024-01-15T09:45:40;95824.94;;;0.39;100.00
12178;BME280;6152;48.728;9.256;2024-01-15T09:48:07;95831.06;;;0.35;100.00
12178;BME280;6152;48.728;9.256;2024-01-15T09:50:33;95840.00;;;0.45;100.00
12178;BME280;6152;48.728;9.256;2024-01-15T09:53:02;95836.97;;;0.58;100.00
12178;BME280;6152;48.728;9.256;2024-01-15T09:55:30;95841.81;;;0.64;100.00
12178;BME280;6152;48.728;9.256;2024-01-15T09:57:57;95825.69;;;0.62;100.00
12178;BME280;6152;48.728;9.256;2024-01-15T10:00:24;95828.75;;;0.70;100.00
12178;BME280;6152;48.728;9.256;2024-01-15T10:02:50;95825.34;;;0.69;100.00
12178;BME280;6152;48.728;9.256;2024-01-15T10:05:17;95829.41;;;0.75;100.00
12178;BME280;6152;48.728;9.256;2024-01-15T10:07:44;95826.06;;;0.73;100.00
12178;BME280;6152;48.728;9.256;2024-01-15T10:10:12;95826.06;;;0.73;100.00
12178;BME280;6152;48.728;9.256;2024-01-15T10:12:39;95816.47;;;0.78;100.00
12178;BME280;6152;48.728;9.256;2024-01-15T10:15:05;95820.81;;;0.76;100.00
12178;BME280;6152;48.728;9.256;2024-01-15T10:17:32;95809.75;;;0.75;100.00
12178;BME280;6152;48.728;9.256;2024-01-15T10:19:58;95819.16;;;0.75;100.00
12178;BME280;6152;48.728;9.256;2024-01-15T10:22:24;95814.66;;;0.80;100.00
12178;BME280;6152;48.728;9.256;2024-01-15T10:24:51;95805.19;;;0.82;100.00
12178;BME280;6152;48.728;9.256;2024-01-15T10:27:17;95805.47;;;0.76;100.00
12178;BME280;6152;48.728;9.256;2024-01-15T10:29:43;95809.81;;;0.74;100.00
12178;BME280;6152;48.728;9.256;2024-01-15T10:32:10;95803.66;;;0.78;100.00
12178;BME280;6152;48.728;9.256;2024-01-15T10:34:41;95807.88;;;0.79;100.00
12178;BME280;6152;48.728;9.256;2024-01-15T10:37:10;95807.75;;;0.82;100.00
12178;BME280;6152;48.728;9.256;2024-01-15T10:39:37;95800.06;;;0.82;100.00
12178;BME280;6152;48.728;9.256;2024-01-15T10:42:04;95796.72;;;0.80;100.00
12178;BME280;6152;48.728;9.256;2024-01-15T10:44:30;95789.88;;;0.80;100.00
12178;BME280;6152;48.728;9.256;2024-01-15T10:46:57;95790.94;;;0.95;100.00
12178;BME280;6152;48.728;9.256;2024-01-15T10:49:24;95779.88;;;0.94;100.00
12178;BME280;6152;48.728;9.256;2024-01-15T10:51:53;95773.78;;;0.97;100.00
12178;BME280;6152;48.728;9.256;2024-01-15T10:54:20;95775.31;;;0.82;100.00
12178;BME280;6152;48.728;9.256;2024-01-15T10:56:47;95772.25;;;0.74;100.00
12178;BME280;6152;48.728;9.256;2024-01-15T10:59:14;95760.34;;;0.73;100.00
12178;BME280;6152;48.728;9.256;2024-01-15T11:01:42;95768.56;;;0.80;100.00
12178;BME280;6152;48.728;9.256;2024-01-15T11:04:09;95771.06;;;0.81;100.00
12178;BME280;6152;48.728;9.256;2024-01-15T11:06:43;95767.41;;;0.87;100.00
12178;BME280;6152;48.728;9.256;2024-01-15T11:09:10;95768.38;;;0.84;100.00
12178;BME280;6152;48.728;9.256;2024-01-15T11:11:40;95769.03;;;0.89;100.00
12178;BME280;6152;48.728;9.256;2024-01-15T11:14:06;95771.84;;;1.02;100.00
12178;BME280;6152;48.728;9.256;2024-01-15T11:16:55;95767.00;;;0.96;100.00
12178;BME280;6152;48.728;9.256;2024-01-15T11:19:47;95771.69;;;0.86;100.00
12178;BME280;6152;48.728;9.256;2024-01-15T11:25:13;95756.81;;;0.94;100.00
12178;BME280;6152;48.728;9.256;2024-01-15T11:27:43;95756.63;;;0.99;100.00
12178;BME280;6152;48.728;9.256;2024-01-15T11:30:13;95746.38;;;0.99;100.00
12178;BME280;6152;48.728;9.256;2024-01-15T11:32:40;95724.22;;;0.98;100.00
12178;BME280;6152;48.728;9.256;2024-01-15T11:35:08;95734.75;;;0.92;100.00
12178;BME280;6152;48.728;9.256;2024-01-15T11:40:37;95733.59;;;0.99;100.00
12178;BME280;6152;48.728;9.256;2024-01-15T11:43:05;95730.19;;;0.98;100.00
12178;BME280;6152;48.728;9.256;2024-01-15T11:45:32;95744.72;;;0.98;100.00
12178;BME280;6152;48.728;9.256;2024-01-15T11:48:12;95747.28;;;0.98;100.00
12178;BME280;6152;48.728;9.256;2024-01-15T11:50:44;95749.22;;;1.12;100.00
12178;BME280;6152;48.728;9.256;2024-01-15T11:53:17;95745.66;;;1.14;100.00
12178;BME280;6152;48.728;9.256;2024-01-15T11:55:45;95733.78;;;1.13;100.00
12178;BME280;6152;48.728;9.256;2024-01-15T11:58:11;95744.88;;;1.14;100.00
12178;BME280;6152;48.728;9.256;2024-01-15T12:00:45;95755.38;;;1.08;100.00
12178;BME280;6152;48.728;9.256;2024-01-15T12:03:13;95753.94;;;1.02;100.00
12178;BME280;6152;48.728;9.256;2024-01-15T12:05:39;95755.94;;;0.95;100.00
12178;BME280;6152;48.728;9.256;2024-01-15T12:08:07;95754.25;;;0.94;100.00
12178;BME280;6152;48.728;9.256;2024-01-15T12:10:37;95759.81;;;0.85;100.00
12178;BME280;6152;48.728;9.256;2024-01-15T12:13:12;95749.00;;;0.79;100.00
12178;BME280;6152;48.728;9.256;2024-01-15T12:15:39;95747.19;;;0.81;100.00
12178;BME280;6152;48.728;9.256;2024-01-15T12:18:10;95749.16;;;0.76;100.00
12178;BME280;6152;48.728;9.256;2024-01-15T12:20:37;95747.31;;;0.59;100.00
12178;BME280;6152;48.728;9.256;2024-01-15T12:23:04;95748.81;;;0.44;100.00
12178;BME280;6152;48.728;9.256;2024-01-15T12:25:34;95759.38;;;0.37;100.00
12178;BME280;6152;48.728;9.256;2024-01-15T12:28:01;95755.31;;;0.31;100.00
12178;BME280;6152;48.728;9.256;2024-01-15T12:30:28;95754.56;;;0.29;100.00
12178;BME280;6152;48.728;9.256;2024-01-15T12:32:54;95761.88;;;0.18;100.00
12178;BME280;6152;48.728;9.256;2024-01-15T12:35:21;95755.72;;;0.02;100.00
12178;BME280;6152;48.728;9.256;2024-01-15T12:37:48;95761.09;;;-0.04;100.00
12178;BME280;6152;48.728;9.256;2024-01-15T12:40:19;95769.25;;;-0.16;100.00
12178;BME280;6152;48.728;9.256;2024-01-15T12:42:45;95761.00;;;-0.23;100.00
12178;BME280;6152;48.728;9.256;2024-01-15T12:45:12;95765.78;;;-0.35;100.00
12178;BME280;6152;48.728;9.256;2024-01-15T12:47:39;95767.56;;;-0.37;100.00
12178;BME280;6152;48.728;9.256;2024-01-15T12:50:12;95767.81;;;-0.43;100.00
12178;BME280;6152;48.728;9.256;2024-01-15T12:52:41;95773.88;;;-0.46;100.00
12178;BME280;6152;48.728;9.256;2024-01-15T12:55:09;95776.47;;;-0.47;100.00
12178;BME280;6152;48.728;9.256;2024-01-15T12:57:35;95775.59;;;-0.46;100.00
12178;BME280;6152;48.728;9.256;2024-01-15T13:00:03;95769.59;;;-0.45;100.00
12178;BME280;6152;48.728;9.256;2024-01-15T13:02:33;95771.47;;;-0.51;100.00
12178;BME280;6152;48.728;9.256;2024-01-15T13:05:00;95772.28;;;-0.48;100.00